createdAt,value
2019-01-13T00:01:01.066Z,-3.87
2019-01-13T00:03:36.590Z,-3.78
2019-01-13T00:06:12.635Z,-3.59
2019-01-13T00:08:48.937Z,-3.17
2019-01-13T00:11:23.179Z,-3.06
2019-01-13T00:14:00.919Z,-2.78
2019-01-13T00:16:37.222Z,-2.82
2019-01-13T00:19:11.568Z,-2.58
2019-01-13T00:21:47.595Z,-2.28
2019-01-13T00:24:25.371Z,-2.06
2019-01-13T00:27:02.012Z,-1.91
2019-01-13T00:29:41.767Z,-2.01
2019-01-13T00:32:16.391Z,-2.00
2019-01-13T00:34:52.669Z,-1.83
2019-01-13T00:37:27.233Z,-1.45
2019-01-13T00:40:05.018Z,-1.41
2019-01-13T00:42:41.269Z,-1.38
2019-01-13T00:45:17.040Z,-1.17
2019-01-13T00:47:54.371Z,-1.29
2019-01-13T00:50:29.695Z,-1.28
2019-01-13T00:53:02.622Z,-1.36
2019-01-13T00:55:38.182Z,-1.41
2019-01-13T00:58:13.552Z,-1.46
2019-01-13T01:00:49.053Z,-1.43
2019-01-13T01:03:29.709Z,-1.39
2019-01-13T01:06:06.174Z,-1.40
2019-01-13T01:08:56.853Z,-1.46
2019-01-13T01:11:28.622Z,-1.52
2019-01-13T01:14:01.080Z,-1.53
2019-01-13T01:16:32.819Z,-1.58
2019-01-13T01:19:04.621Z,-1.61
2019-01-13T01:21:36.440Z,-1.71
2019-01-13T01:24:08.119Z,-1.79
2019-01-13T01:26:39.946Z,-1.90
2019-01-13T01:29:11.815Z,-1.93
2019-01-13T01:31:43.630Z,-1.92
2019-01-13T01:34:15.420Z,-1.91
2019-01-13T01:36:47.091Z,-1.88
2019-01-13T01:39:18.717Z,-1.99
2019-01-13T01:41:51.059Z,-1.93
2019-01-13T01:44:22.835Z,-2.05
2019-01-13T01:46:54.617Z,-2.18
2019-01-13T01:49:26.469Z,-2.16
2019-01-13T01:52:00.704Z,-2.15
2019-01-13T01:54:32.372Z,-1.90
2019-01-13T01:57:04.174Z,-1.74
2019-01-13T01:59:36.589Z,-1.68
2019-01-13T02:02:09.616Z,-1.62
2019-01-13T02:04:41.375Z,-1.58
2019-01-13T02:07:13.098Z,-1.60
2019-01-13T02:09:44.730Z,-1.56
2019-01-13T02:12:16.387Z,-1.50
2019-01-13T02:14:47.919Z,-1.70
2019-01-13T02:17:19.609Z,-1.88
2019-01-13T02:19:51.952Z,-2.08
2019-01-13T02:22:23.597Z,-2.26
2019-01-13T02:24:55.564Z,-2.19
2019-01-13T02:27:27.120Z,-1.88
2019-01-13T02:29:58.921Z,-1.61
2019-01-13T02:32:30.784Z,-1.52
2019-01-13T02:35:02.901Z,-1.37
2019-01-13T02:37:34.604Z,-1.26
2019-01-13T02:40:07.720Z,-1.20
2019-01-13T02:42:39.547Z,-1.19
2019-01-13T02:45:15.850Z,-1.10
2019-01-13T02:47:47.372Z,-1.08
2019-01-13T02:50:19.494Z,-1.07
2019-01-13T02:52:51.373Z,-1.06
2019-01-13T02:55:22.896Z,-1.00
2019-01-13T02:57:54.432Z,-0.99
2019-01-13T03:00:27.704Z,-0.99
2019-01-13T03:03:00.663Z,-1.05
2019-01-13T03:05:34.001Z,-1.04
2019-01-13T03:08:05.764Z,-1.04
2019-01-13T03:10:37.292Z,-1.07
2019-01-13T03:13:12.185Z,-1.02
2019-01-13T03:15:44.019Z,-1.11
2019-01-13T03:18:15.700Z,-1.19
2019-01-13T03:20:47.423Z,-1.19
2019-01-13T03:23:19.024Z,-1.17
2019-01-13T03:25:50.754Z,-1.14
2019-01-13T03:28:22.529Z,-1.13
2019-01-13T03:30:54.163Z,-1.16
2019-01-13T03:33:25.717Z,-1.19
2019-01-13T03:35:57.458Z,-1.23
2019-01-13T03:38:29.001Z,-1.27
2019-01-13T03:41:00.538Z,-1.27
2019-01-13T03:43:32.334Z,-1.24
2019-01-13T03:46:04.427Z,-1.26
2019-01-13T03:48:36.078Z,-1.31
2019-01-13T03:51:08.146Z,-1.31
2019-01-13T03:53:39.852Z,-1.28
2019-01-13T03:56:12.125Z,-1.24
2019-01-13T03:58:44.042Z,-1.19
2019-01-13T04:01:18.681Z,-1.12
2019-01-13T04:03:50.507Z,-0.98
2019-01-13T04:06:22.551Z,-0.93
2019-01-13T04:08:54.077Z,-0.92
2019-01-13T04:11:25.604Z,-0.89
2019-01-13T04:13:57.361Z,-0.82
2019-01-13T04:16:29.822Z,-0.81
2019-01-13T04:19:01.571Z,-0.75
2019-01-13T04:21:33.089Z,-0.72
2019-01-13T04:24:04.831Z,-0.68
2019-01-13T04:26:36.454Z,-0.65
2019-01-13T04:29:08.209Z,-0.60
2019-01-13T04:31:39.914Z,-0.61
2019-01-13T04:34:11.589Z,-0.52
2019-01-13T04:36:43.442Z,-0.48
2019-01-13T04:39:15.319Z,-0.47
2019-01-13T04:41:46.937Z,-0.46
2019-01-13T04:44:18.418Z,-0.36
2019-01-13T04:46:50.337Z,-0.46
2019-01-13T04:49:25.051Z,-0.41
2019-01-13T04:51:57.135Z,-0.41
2019-01-13T04:54:28.907Z,-0.41
2019-01-13T04:57:00.547Z,-0.47
2019-01-13T04:59:32.272Z,-0.51
2019-01-13T05:02:03.958Z,-0.44
2019-01-13T05:04:35.441Z,-0.33
2019-01-13T05:07:06.977Z,-0.35
2019-01-13T05:09:38.637Z,-0.33
2019-01-13T05:12:10.286Z,-0.27
2019-01-13T05:14:42.103Z,-0.29
2019-01-13T05:17:13.800Z,-0.19
2019-01-13T05:19:45.257Z,-0.18
2019-01-13T05:22:16.927Z,-0.09
2019-01-13T05:24:48.560Z,-0.13
2019-01-13T05:27:19.985Z,-0.06
2019-01-13T05:29:51.619Z,-0.06
2019-01-13T05:32:23.286Z,-0.03
2019-01-13T05:34:54.985Z,0.06
2019-01-13T05:37:26.616Z,0.19
2019-01-13T05:39:58.327Z,0.14
2019-01-13T05:42:29.870Z,0.17
2019-01-13T05:45:01.455Z,0.24
2019-01-13T05:47:33.279Z,0.23
2019-01-13T05:50:05.227Z,0.18
2019-01-13T05:52:38.005Z,-0.06
2019-01-13T05:55:09.687Z,-0.27
2019-01-13T05:57:41.508Z,-0.47
2019-01-13T06:00:17.950Z,-0.51
2019-01-13T06:02:49.645Z,-0.38
2019-01-13T06:05:21.162Z,-0.27
2019-01-13T06:07:52.769Z,-0.27
2019-01-13T06:10:24.642Z,-0.28
2019-01-13T06:12:56.390Z,-0.43
2019-01-13T06:15:28.620Z,-0.43
2019-01-13T06:18:00.175Z,-0.51
2019-01-13T06:20:31.799Z,-0.61
2019-01-13T06:23:03.782Z,-0.52
2019-01-13T06:25:35.552Z,-0.58
2019-01-13T06:28:07.339Z,-0.50
2019-01-13T06:30:39.160Z,-0.45
2019-01-13T06:33:10.760Z,-0.48
2019-01-13T06:35:42.372Z,-0.46
2019-01-13T06:38:14.073Z,-0.30
2019-01-13T06:40:45.626Z,-0.30
2019-01-13T06:43:17.808Z,-0.24
2019-01-13T06:45:49.633Z,-0.36
2019-01-13T06:48:22.501Z,-0.40
2019-01-13T06:50:54.268Z,-0.53
2019-01-13T06:53:27.067Z,-0.47
2019-01-13T06:55:58.752Z,-0.51
2019-01-13T06:58:31.163Z,-0.53
2019-01-13T07:01:02.979Z,-0.62
2019-01-13T07:03:34.797Z,-0.56
2019-01-13T07:06:06.313Z,-0.53
2019-01-13T07:08:37.860Z,-0.46
2019-01-13T07:11:09.507Z,-0.33
2019-01-13T07:13:41.468Z,-0.29
2019-01-13T07:16:13.191Z,-0.24
2019-01-13T07:18:44.912Z,-0.18
2019-01-13T07:21:16.745Z,-0.19
2019-01-13T07:23:48.372Z,0.00
2019-01-13T07:26:20.366Z,0.14
2019-01-13T07:28:52.896Z,0.28
2019-01-13T07:31:25.144Z,0.45
2019-01-13T07:33:58.166Z,0.56
2019-01-13T07:36:30.052Z,0.72
2019-01-13T07:39:01.766Z,0.84
2019-01-13T07:41:33.878Z,0.92
2019-01-13T07:44:06.338Z,0.94
2019-01-13T07:46:38.083Z,0.93
2019-01-13T07:49:10.108Z,1.00
2019-01-13T07:51:41.795Z,0.92
2019-01-13T07:54:14.282Z,1.00
2019-01-13T07:56:47.478Z,0.99
2019-01-13T07:59:19.540Z,1.07
2019-01-13T08:01:51.647Z,1.18
2019-01-13T08:04:24.237Z,1.27
2019-01-13T08:06:56.484Z,1.33
2019-01-13T08:09:28.487Z,1.35
2019-01-13T08:12:01.235Z,1.47
2019-01-13T08:14:33.357Z,1.55
2019-01-13T08:17:05.108Z,1.63
2019-01-13T08:19:37.058Z,1.61
2019-01-13T08:22:08.847Z,1.61
2019-01-13T08:24:40.818Z,1.67
2019-01-13T08:27:13.168Z,1.69
2019-01-13T08:29:44.721Z,1.75
2019-01-13T08:32:16.437Z,1.86
2019-01-13T08:34:48.510Z,1.97
2019-01-13T08:37:20.904Z,2.21
2019-01-13T08:39:52.577Z,2.59
2019-01-13T08:42:24.555Z,2.86
2019-01-13T08:44:56.311Z,3.14
2019-01-13T08:47:29.321Z,3.39
2019-01-13T08:50:03.252Z,3.38
2019-01-13T08:52:35.579Z,3.45
2019-01-13T08:55:09.134Z,3.64
2019-01-13T08:57:41.279Z,3.79
2019-01-13T09:00:26.327Z,3.93
2019-01-13T09:03:00.129Z,4.02
2019-01-13T09:05:32.036Z,4.15
2019-01-13T09:08:04.629Z,4.38
2019-01-13T09:10:37.604Z,4.49
2019-01-13T09:13:09.700Z,4.66
2019-01-13T09:15:41.624Z,4.61
2019-01-13T09:18:13.798Z,4.65
2019-01-13T09:20:46.332Z,4.67
2019-01-13T09:23:21.699Z,4.57
2019-01-13T09:25:58.486Z,4.39
2019-01-13T09:28:31.394Z,4.46
2019-01-13T09:31:03.412Z,4.92
2019-01-13T09:33:36.302Z,5.28
2019-01-13T09:36:08.709Z,5.48
2019-01-13T09:38:41.508Z,5.64
2019-01-13T09:41:16.102Z,5.88
2019-01-13T09:43:48.724Z,6.03
2019-01-13T09:46:22.334Z,6.20
2019-01-13T09:48:56.437Z,6.28
2019-01-13T09:51:32.835Z,6.42
2019-01-13T09:54:08.104Z,6.67
2019-01-13T09:56:45.684Z,7.12
2019-01-13T09:59:23.020Z,8.01
2019-01-13T10:02:05.432Z,9.50
2019-01-13T10:04:41.264Z,11.90
2019-01-13T10:07:17.685Z,14.11
2019-01-13T10:09:51.929Z,15.92
2019-01-13T10:12:29.282Z,16.30
2019-01-13T10:15:06.870Z,17.87
2019-01-13T10:17:41.662Z,19.68
2019-01-13T10:20:21.823Z,20.53
2019-01-13T10:22:57.194Z,21.74
2019-01-13T10:25:38.330Z,21.19
2019-01-13T10:28:18.669Z,21.26
2019-01-13T10:31:03.103Z,21.19
2019-01-13T10:33:34.531Z,21.35
2019-01-13T10:36:13.388Z,21.18
2019-01-13T10:38:49.510Z,21.24
2019-01-13T10:41:27.553Z,21.09
2019-01-13T10:44:08.729Z,20.48
2019-01-13T10:46:45.221Z,20.54
2019-01-13T10:49:22.769Z,21.68
2019-01-13T10:51:56.196Z,21.76
2019-01-13T10:54:35.027Z,22.00
2019-01-13T10:57:11.076Z,22.99
2019-01-13T10:59:47.895Z,22.90
2019-01-13T11:02:21.104Z,19.99
2019-01-13T11:04:56.849Z,20.82
2019-01-13T11:07:33.806Z,21.48
2019-01-13T11:10:14.302Z,21.18
2019-01-13T11:12:51.185Z,18.81
2019-01-13T11:15:25.994Z,20.46
2019-01-13T11:18:03.080Z,18.10
2019-01-13T11:20:45.591Z,19.99
2019-01-13T11:23:21.673Z,19.54
2019-01-13T11:25:59.525Z,20.27
2019-01-13T11:28:34.998Z,21.05
2019-01-13T11:31:09.454Z,21.56
2019-01-13T11:33:41.970Z,22.61
2019-01-13T11:36:14.185Z,22.89
2019-01-13T11:38:46.372Z,22.93
2019-01-13T11:41:18.599Z,22.48
2019-01-13T11:43:50.763Z,19.69
2019-01-13T11:46:23.664Z,18.11
2019-01-13T11:48:55.525Z,17.71
2019-01-13T11:51:28.386Z,16.50
2019-01-13T11:54:01.319Z,18.94
2019-01-13T11:56:33.993Z,16.06
2019-01-13T11:59:06.023Z,17.88
2019-01-13T12:01:37.697Z,17.71
2019-01-13T12:04:11.401Z,18.29
2019-01-13T12:06:43.775Z,15.53
2019-01-13T12:09:15.793Z,16.79
2019-01-13T12:11:47.520Z,16.80
2019-01-13T12:14:20.915Z,19.13
2019-01-13T12:16:52.771Z,16.63
2019-01-13T12:19:25.721Z,18.14
2019-01-13T12:21:57.970Z,15.83
2019-01-13T12:24:29.602Z,15.06
2019-01-13T12:27:03.986Z,17.08
2019-01-13T12:29:35.928Z,18.10
2019-01-13T12:32:08.273Z,19.54
2019-01-13T12:34:40.982Z,20.05
2019-01-13T12:37:14.763Z,17.95
2019-01-13T12:39:46.453Z,18.36
2019-01-13T12:42:19.094Z,17.87
2019-01-13T12:44:53.267Z,18.13
2019-01-13T12:47:25.253Z,17.32
2019-01-13T12:49:57.851Z,17.22
2019-01-13T12:52:30.165Z,17.98
2019-01-13T12:55:03.182Z,14.79
2019-01-13T12:57:35.309Z,16.16
2019-01-13T13:00:09.969Z,16.31
2019-01-13T13:02:41.818Z,18.17
2019-01-13T13:05:15.625Z,18.55
2019-01-13T13:07:48.184Z,17.83
2019-01-13T13:10:40.183Z,18.95
2019-01-13T13:13:11.736Z,18.47
2019-01-13T13:15:43.956Z,18.11
2019-01-13T13:18:15.789Z,14.95
2019-01-13T13:20:49.092Z,16.53
2019-01-13T13:23:21.105Z,16.92
2019-01-13T13:25:53.121Z,18.57
2019-01-13T13:28:25.729Z,19.18
2019-01-13T13:30:57.664Z,18.65
2019-01-13T13:33:29.765Z,19.64
2019-01-13T13:36:03.781Z,20.60
2019-01-13T13:38:36.292Z,20.27
2019-01-13T13:41:08.068Z,19.79
2019-01-13T13:43:37.368Z,19.59
2019-01-13T13:46:09.629Z,18.97
2019-01-13T13:48:42.175Z,19.89
2019-01-13T13:51:14.302Z,20.71
2019-01-13T13:53:46.642Z,19.92
2019-01-13T13:56:18.684Z,20.60
2019-01-13T13:58:50.805Z,20.31
2019-01-13T14:01:22.985Z,20.80
2019-01-13T14:03:57.390Z,21.09
2019-01-13T14:06:29.369Z,20.14
2019-01-13T14:09:01.446Z,20.23
2019-01-13T14:11:33.338Z,20.08
2019-01-13T14:14:05.842Z,18.27
2019-01-13T14:16:38.341Z,19.29
2019-01-13T14:19:10.356Z,19.69
2019-01-13T14:21:42.752Z,20.06
2019-01-13T14:24:14.771Z,18.36
2019-01-13T14:26:46.666Z,19.23
2019-01-13T14:29:19.113Z,19.18
2019-01-13T14:31:51.156Z,18.41
2019-01-13T14:34:23.154Z,16.08
2019-01-13T14:36:55.292Z,16.32
2019-01-13T14:39:27.492Z,15.41
2019-01-13T14:41:59.550Z,14.46
2019-01-13T14:44:31.295Z,14.58
2019-01-13T14:47:03.289Z,13.42
2019-01-13T14:49:35.102Z,12.54
2019-01-13T14:52:06.725Z,12.54
2019-01-13T14:54:38.764Z,12.36
2019-01-13T14:57:10.797Z,12.42
2019-01-13T14:59:43.316Z,12.74
2019-01-13T15:02:15.626Z,13.62
2019-01-13T15:04:47.766Z,14.41
2019-01-13T15:07:19.499Z,14.54
2019-01-13T15:09:52.797Z,14.94
2019-01-13T15:12:24.685Z,14.97
2019-01-13T15:14:57.892Z,14.01
2019-01-13T15:17:29.738Z,14.03
2019-01-13T15:20:01.674Z,14.14
2019-01-13T15:22:33.608Z,14.38
2019-01-13T15:25:06.771Z,14.24
2019-01-13T15:27:38.773Z,14.58
2019-01-13T15:30:23.012Z,14.46
2019-01-13T15:32:55.104Z,14.22
2019-01-13T15:35:26.996Z,13.88
2019-01-13T15:37:59.925Z,13.25
2019-01-13T15:40:31.741Z,12.71
2019-01-13T15:43:04.397Z,12.26
2019-01-13T15:45:38.354Z,11.87
2019-01-13T15:48:10.855Z,11.61
2019-01-13T15:50:42.910Z,11.38
2019-01-13T15:53:14.795Z,11.16
2019-01-13T15:55:48.029Z,10.98
2019-01-13T15:58:20.358Z,10.79
2019-01-13T16:00:53.418Z,10.67
2019-01-13T16:03:25.762Z,10.46
2019-01-13T16:05:58.494Z,10.27
2019-01-13T16:08:30.634Z,10.08
2019-01-13T16:11:03.404Z,9.90
2019-01-13T16:13:35.412Z,9.71
2019-01-13T16:16:07.374Z,9.47
2019-01-13T16:18:39.933Z,9.21
2019-01-13T16:21:13.640Z,9.10
2019-01-13T16:23:45.684Z,8.98
2019-01-13T16:26:19.081Z,8.85
2019-01-13T16:28:51.145Z,8.79
2019-01-13T16:31:24.494Z,8.67
2019-01-13T16:33:57.582Z,8.49
2019-01-13T16:36:30.500Z,8.37
2019-01-13T16:39:02.259Z,8.25
2019-01-13T16:41:35.314Z,8.16
2019-01-13T16:44:07.505Z,8.04
2019-01-13T16:46:43.615Z,7.97
2019-01-13T16:49:14.398Z,7.93
2019-01-13T16:51:47.083Z,7.89
2019-01-13T16:54:19.437Z,7.94
2019-01-13T16:56:51.270Z,7.83
2019-01-13T16:59:22.960Z,7.73
2019-01-13T17:01:55.139Z,7.61
2019-01-13T17:04:28.979Z,7.44
2019-01-13T17:07:00.421Z,7.50
2019-01-13T17:09:32.168Z,7.39
2019-01-13T17:12:03.853Z,7.33
2019-01-13T17:14:35.641Z,7.19
2019-01-13T17:17:07.411Z,7.01
2019-01-13T17:19:39.308Z,6.91
2019-01-13T17:22:11.403Z,6.74
2019-01-13T17:24:43.527Z,6.55
2019-01-13T17:27:15.697Z,6.36
2019-01-13T17:29:47.918Z,6.29
2019-01-13T17:32:20.109Z,6.30
2019-01-13T17:34:52.531Z,6.40
2019-01-13T17:37:25.078Z,6.47
2019-01-13T17:39:57.585Z,6.69
2019-01-13T17:42:29.513Z,6.64
2019-01-13T17:45:01.717Z,6.74
2019-01-13T17:47:33.865Z,6.71
2019-01-13T17:50:06.771Z,6.72
2019-01-13T17:52:39.678Z,6.60
2019-01-13T17:55:15.539Z,6.56
2019-01-13T17:57:47.729Z,6.53
2019-01-13T18:00:39.888Z,6.37
2019-01-13T18:03:17.559Z,6.30
2019-01-13T18:05:49.536Z,6.16
2019-01-13T18:08:21.907Z,6.04
2019-01-13T18:10:54.205Z,5.82
2019-01-13T18:13:35.978Z,5.69
2019-01-13T18:16:08.259Z,5.61
2019-01-13T18:18:39.901Z,5.52
2019-01-13T18:21:13.307Z,5.43
2019-01-13T18:23:45.959Z,5.41
2019-01-13T18:26:18.017Z,5.46
2019-01-13T18:28:49.881Z,5.48
2019-01-13T18:31:21.679Z,5.38
2019-01-13T18:33:54.711Z,5.25
2019-01-13T18:36:26.625Z,5.13
2019-01-13T18:38:58.533Z,5.11
2019-01-13T18:41:30.362Z,5.17
2019-01-13T18:44:02.601Z,5.25
2019-01-13T18:47:07.321Z,5.35
2019-01-13T18:49:39.256Z,5.39
2019-01-13T18:52:11.056Z,5.39
2019-01-13T18:54:42.679Z,5.39
2019-01-13T18:57:14.782Z,5.41
2019-01-13T18:59:46.823Z,5.38
2019-01-13T19:02:18.837Z,5.32
2019-01-13T19:04:57.239Z,5.24
2019-01-13T19:07:24.766Z,5.11
2019-01-13T19:09:56.622Z,5.02
2019-01-13T19:12:28.751Z,4.96
2019-01-13T19:15:03.560Z,5.04
2019-01-13T19:17:35.620Z,4.97
2019-01-13T19:20:30.976Z,4.98
2019-01-13T19:23:19.354Z,4.99
2019-01-13T19:25:51.231Z,4.88
2019-01-13T19:28:23.263Z,4.86
2019-01-13T19:30:55.523Z,4.89
2019-01-13T19:33:27.477Z,4.86
2019-01-13T19:35:59.586Z,4.85
2019-01-13T19:38:32.297Z,4.60
2019-01-13T19:41:04.328Z,4.35
2019-01-13T19:43:36.629Z,4.16
2019-01-13T19:46:09.574Z,3.97
2019-01-13T19:48:48.435Z,3.84
2019-01-13T19:51:20.353Z,3.73
2019-01-13T19:53:52.918Z,3.73
2019-01-13T19:56:24.879Z,3.86
2019-01-13T19:58:57.093Z,3.92
2019-01-13T20:01:30.819Z,3.88
2019-01-13T20:04:02.927Z,4.00
2019-01-13T20:06:34.848Z,3.99
2019-01-13T20:09:11.810Z,3.98
2019-01-13T20:11:44.104Z,3.84
2019-01-13T20:14:16.354Z,3.62
2019-01-13T20:16:49.395Z,3.32
2019-01-13T20:19:22.971Z,3.06
2019-01-13T20:21:56.991Z,2.90
2019-01-13T20:24:29.298Z,2.84
2019-01-13T20:27:01.507Z,2.88
2019-01-13T20:29:36.146Z,2.88
2019-01-13T20:32:08.381Z,2.80
2019-01-13T20:34:41.222Z,2.65
2019-01-13T20:37:13.156Z,2.47
2019-01-13T20:39:45.507Z,2.31
2019-01-13T20:42:18.419Z,2.12
2019-01-13T20:44:50.525Z,1.96
2019-01-13T20:47:22.743Z,1.84
2019-01-13T20:49:54.791Z,1.75
2019-01-13T20:52:28.033Z,1.83
2019-01-13T20:55:00.682Z,1.83
2019-01-13T20:57:33.135Z,1.77
2019-01-13T21:00:08.410Z,1.81
2019-01-13T21:02:42.884Z,1.84
2019-01-13T21:05:15.083Z,2.04
2019-01-13T21:07:47.428Z,2.15
2019-01-13T21:10:19.925Z,2.04
2019-01-13T21:12:52.386Z,1.95
2019-01-13T21:15:36.571Z,1.86
2019-01-13T21:18:08.854Z,1.84
2019-01-13T21:20:42.956Z,1.91
2019-01-13T21:23:16.238Z,1.79
2019-01-13T21:25:49.349Z,1.77
2019-01-13T21:28:22.864Z,1.75
2019-01-13T21:30:58.934Z,1.81
2019-01-13T21:33:31.471Z,1.86
2019-01-13T21:36:04.236Z,1.98
2019-01-13T21:38:36.305Z,2.22
2019-01-13T21:41:08.391Z,2.47
2019-01-13T21:43:40.754Z,2.53
2019-01-13T21:46:15.238Z,2.52
2019-01-13T21:48:47.897Z,2.55
2019-01-13T21:51:19.901Z,2.64
2019-01-13T21:53:53.986Z,2.53
2019-01-13T21:56:26.587Z,2.37
2019-01-13T21:58:58.946Z,2.51
2019-01-13T22:01:35.495Z,2.56
2019-01-13T22:04:05.756Z,2.72
2019-01-13T22:06:38.007Z,2.85
2019-01-13T22:09:14.071Z,2.86
2019-01-13T22:11:46.518Z,2.72
2019-01-13T22:14:19.275Z,2.59
2019-01-13T22:16:51.419Z,2.45
2019-01-13T22:19:26.361Z,2.43
2019-01-13T22:21:59.798Z,2.38
2019-01-13T22:24:31.800Z,2.32
2019-01-13T22:27:04.611Z,2.22
2019-01-13T22:29:36.974Z,2.03
2019-01-13T22:32:09.081Z,1.79
2019-01-13T22:34:41.179Z,1.65
2019-01-13T22:37:13.203Z,1.57
2019-01-13T22:39:44.830Z,1.64
2019-01-13T22:42:16.900Z,1.76
2019-01-13T22:44:48.835Z,1.85
2019-01-13T22:47:22.553Z,2.14
2019-01-13T22:49:54.205Z,2.52
2019-01-13T22:52:25.943Z,2.72
2019-01-13T22:54:57.907Z,2.77
2019-01-13T22:57:29.646Z,2.84
2019-01-13T23:00:01.182Z,2.84
2019-01-13T23:02:33.216Z,2.90
2019-01-13T23:05:05.471Z,2.94
2019-01-13T23:07:37.798Z,2.83
2019-01-13T23:10:10.081Z,2.71
2019-01-13T23:12:42.099Z,2.60
2019-01-13T23:15:14.288Z,2.47
2019-01-13T23:17:46.430Z,2.32
2019-01-13T23:20:18.134Z,2.44
2019-01-13T23:22:50.131Z,2.61
2019-01-13T23:25:21.948Z,2.61
2019-01-13T23:27:54.949Z,2.47
2019-01-13T23:30:26.717Z,2.49
2019-01-13T23:32:59.744Z,2.63
2019-01-13T23:35:31.661Z,2.80
2019-01-13T23:38:04.314Z,2.99
2019-01-13T23:40:36.290Z,3.05
2019-01-13T23:43:08.324Z,2.99
2019-01-13T23:45:40.235Z,3.12
2019-01-13T23:48:11.990Z,3.14
2019-01-13T23:50:43.787Z,3.12
2019-01-13T23:53:15.467Z,3.00
2019-01-13T23:55:47.138Z,2.84
2019-01-13T23:58:18.958Z,2.67
